sensor_id;sensor_type;location;lat;lon;timestamp;P1;durP1;ratioP1;P2;durP2;ratioP2
60993;SDS011;47611;54.932;73.338;2022-09-09T00:03:57;8.83;;;4.60;;
60993;SDS011;47611;54.932;73.338;2022-09-09T00:06:42;8.02;;;4.18;;
60993;SDS011;47611;54.932;73.338;2022-09-09T00:11:40;8.82;;;4.43;;
60993;SDS011;47611;54.932;73.338;2022-09-09T00:14:11;11.15;;;5.32;;
60993;SDS011;47611;54.932;73.338;2022-09-09T00:16:39;11.20;;;5.82;;
60993;SDS011;47611;54.932;73.338;2022-09-09T00:21:48;12.50;;;5.82;;
60993;SDS011;47611;54.932;73.338;2022-09-09T00:24:29;12.50;;;6.05;;
60993;SDS011;47611;54.932;73.338;2022-09-09T00:27:01;14.10;;;6.15;;
60993;SDS011;47611;54.932;73.338;2022-09-09T00:29:40;11.25;;;5.90;;
60993;SDS011;47611;54.932;73.338;2022-09-09T00:32:18;11.93;;;5.90;;
60993;SDS011;47611;54.932;73.338;2022-09-09T00:34:51;11.45;;;5.55;;
60993;SDS011;47611;54.932;73.338;2022-09-09T00:37:19;9.68;;;5.38;;
60993;SDS011;47611;54.932;73.338;2022-09-09T00:39:45;13.18;;;5.97;;
60993;SDS011;47611;54.932;73.338;2022-09-09T00:44:49;13.65;;;5.70;;
60993;SDS011;47611;54.932;73.338;2022-09-09T00:50:16;12.77;;;6.20;;
60993;SDS011;47611;54.932;73.338;2022-09-09T00:58:08;11.65;;;6.03;;
60993;SDS011;47611;54.932;73.338;2022-09-09T01:00:40;10.52;;;6.38;;
60993;SDS011;47611;54.932;73.338;2022-09-09T01:05:48;16.45;;;7.93;;
60993;SDS011;47611;54.932;73.338;2022-09-09T01:11:08;14.88;;;6.75;;
60993;SDS011;47611;54.932;73.338;2022-09-09T01:13:36;12.32;;;6.15;;
60993;SDS011;47611;54.932;73.338;2022-09-09T01:16:07;13.48;;;6.13;;
60993;SDS011;47611;54.932;73.338;2022-09-09T01:18:48;14.98;;;6.55;;
60993;SDS011;47611;54.932;73.338;2022-09-09T01:29:10;15.60;;;6.93;;
60993;SDS011;47611;54.932;73.338;2022-09-09T01:31:52;12.80;;;6.55;;
60993;SDS011;47611;54.932;73.338;2022-09-09T01:34:19;13.43;;;6.63;;
60993;SDS011;47611;54.932;73.338;2022-09-09T01:36:47;14.05;;;6.75;;
60993;SDS011;47611;54.932;73.338;2022-09-09T01:39:22;15.23;;;6.88;;
60993;SDS011;47611;54.932;73.338;2022-09-09T01:42:06;14.88;;;5.93;;
60993;SDS011;47611;54.932;73.338;2022-09-09T01:44:33;12.95;;;6.35;;
60993;SDS011;47611;54.932;73.338;2022-09-09T01:47:01;10.77;;;5.60;;
60993;SDS011;47611;54.932;73.338;2022-09-09T01:49:27;9.88;;;4.95;;
60993;SDS011;47611;54.932;73.338;2022-09-09T01:51:55;10.85;;;5.10;;
60993;SDS011;47611;54.932;73.338;2022-09-09T01:54:28;14.40;;;6.10;;
60993;SDS011;47611;54.932;73.338;2022-09-09T01:57:01;11.77;;;5.68;;
60993;SDS011;47611;54.932;73.338;2022-09-09T02:02:26;17.45;;;6.10;;
60993;SDS011;47611;54.932;73.338;2022-09-09T02:07:39;25.25;;;10.75;;
60993;SDS011;47611;54.932;73.338;2022-09-09T02:10:22;21.15;;;6.10;;
60993;SDS011;47611;54.932;73.338;2022-09-09T02:13:13;17.92;;;9.80;;
60993;SDS011;47611;54.932;73.338;2022-09-09T02:15:47;15.90;;;7.70;;
60993;SDS011;47611;54.932;73.338;2022-09-09T02:18:16;17.23;;;9.45;;
60993;SDS011;47611;54.932;73.338;2022-09-09T02:20:49;22.60;;;12.05;;
60993;SDS011;47611;54.932;73.338;2022-09-09T02:23:16;23.10;;;9.93;;
60993;SDS011;47611;54.932;73.338;2022-09-09T02:25:50;22.85;;;7.72;;
60993;SDS011;47611;54.932;73.338;2022-09-09T02:28:21;25.00;;;6.35;;
60993;SDS011;47611;54.932;73.338;2022-09-09T02:30:51;14.38;;;6.90;;
60993;SDS011;47611;54.932;73.338;2022-09-09T02:33:39;17.63;;;5.95;;
60993;SDS011;47611;54.932;73.338;2022-09-09T02:36:07;26.90;;;6.50;;
60993;SDS011;47611;54.932;73.338;2022-09-09T02:38:37;19.20;;;6.80;;
60993;SDS011;47611;54.932;73.338;2022-09-09T02:41:19;48.78;;;10.48;;
60993;SDS011;47611;54.932;73.338;2022-09-09T02:43:48;67.60;;;8.50;;
60993;SDS011;47611;54.932;73.338;2022-09-09T02:49:09;54.00;;;12.65;;
60993;SDS011;47611;54.932;73.338;2022-09-09T02:54:38;35.85;;;6.60;;
60993;SDS011;47611;54.932;73.338;2022-09-09T02:57:02;33.67;;;9.40;;
60993;SDS011;47611;54.932;73.338;2022-09-09T02:59:35;40.47;;;6.47;;
60993;SDS011;47611;54.932;73.338;2022-09-09T03:02:01;47.50;;;6.90;;
60993;SDS011;47611;54.932;73.338;2022-09-09T03:04:27;42.22;;;6.65;;
60993;SDS011;47611;54.932;73.338;2022-09-09T03:06:53;36.70;;;5.40;;
60993;SDS011;47611;54.932;73.338;2022-09-09T03:09:21;34.13;;;5.20;;
60993;SDS011;47611;54.932;73.338;2022-09-09T03:11:48;35.85;;;6.20;;
60993;SDS011;47611;54.932;73.338;2022-09-09T03:14:15;44.15;;;6.85;;
60993;SDS011;47611;54.932;73.338;2022-09-09T03:16:42;34.55;;;5.28;;
60993;SDS011;47611;54.932;73.338;2022-09-09T03:19:09;31.52;;;5.40;;
60993;SDS011;47611;54.932;73.338;2022-09-09T03:21:35;62.75;;;7.30;;
60993;SDS011;47611;54.932;73.338;2022-09-09T03:24:01;47.22;;;5.65;;
60993;SDS011;47611;54.932;73.338;2022-09-09T03:26:29;69.03;;;7.43;;
60993;SDS011;47611;54.932;73.338;2022-09-09T03:28:58;35.80;;;6.13;;
60993;SDS011;47611;54.932;73.338;2022-09-09T03:31:27;27.30;;;4.97;;
60993;SDS011;47611;54.932;73.338;2022-09-09T03:33:57;64.05;;;7.05;;
60993;SDS011;47611;54.932;73.338;2022-09-09T03:36:27;52.95;;;8.23;;
60993;SDS011;47611;54.932;73.338;2022-09-09T03:38:54;33.85;;;5.13;;
60993;SDS011;47611;54.932;73.338;2022-09-09T03:41:26;24.90;;;5.53;;
60993;SDS011;47611;54.932;73.338;2022-09-09T03:43:52;39.55;;;5.88;;
60993;SDS011;47611;54.932;73.338;2022-09-09T03:46:20;34.90;;;5.97;;
60993;SDS011;47611;54.932;73.338;2022-09-09T03:48:46;37.63;;;5.45;;
60993;SDS011;47611;54.932;73.338;2022-09-09T03:51:14;43.42;;;5.80;;
60993;SDS011;47611;54.932;73.338;2022-09-09T03:53:46;41.17;;;5.03;;
60993;SDS011;47611;54.932;73.338;2022-09-09T03:56:12;31.40;;;4.22;;
60993;SDS011;47611;54.932;73.338;2022-09-09T03:58:38;29.77;;;4.03;;
60993;SDS011;47611;54.932;73.338;2022-09-09T04:03:37;38.80;;;5.10;;
60993;SDS011;47611;54.932;73.338;2022-09-09T04:06:13;17.27;;;4.00;;
60993;SDS011;47611;54.932;73.338;2022-09-09T04:08:51;19.83;;;3.58;;
60993;SDS011;47611;54.932;73.338;2022-09-09T04:11:19;19.58;;;3.28;;
60993;SDS011;47611;54.932;73.338;2022-09-09T04:13:48;16.85;;;3.63;;
60993;SDS011;47611;54.932;73.338;2022-09-09T04:16:19;12.13;;;2.75;;
60993;SDS011;47611;54.932;73.338;2022-09-09T04:18:46;16.00;;;2.65;;
60993;SDS011;47611;54.932;73.338;2022-09-09T04:21:14;18.77;;;3.38;;
60993;SDS011;47611;54.932;73.338;2022-09-09T04:23:41;14.52;;;2.55;;
60993;SDS011;47611;54.932;73.338;2022-09-09T04:26:08;14.27;;;2.78;;
60993;SDS011;47611;54.932;73.338;2022-09-09T04:28:35;14.80;;;2.88;;
60993;SDS011;47611;54.932;73.338;2022-09-09T04:31:15;11.95;;;2.28;;
60993;SDS011;47611;54.932;73.338;2022-09-09T04:33:42;7.00;;;2.03;;
60993;SDS011;47611;54.932;73.338;2022-09-09T04:36:15;10.27;;;2.15;;
60993;SDS011;47611;54.932;73.338;2022-09-09T04:38:46;14.60;;;2.55;;
60993;SDS011;47611;54.932;73.338;2022-09-09T04:41:14;8.13;;;1.98;;
60993;SDS011;47611;54.932;73.338;2022-09-09T04:43:43;15.88;;;2.78;;
60993;SDS011;47611;54.932;73.338;2022-09-09T04:46:09;7.78;;;2.13;;
60993;SDS011;47611;54.932;73.338;2022-09-09T04:48:41;11.80;;;2.17;;
60993;SDS011;47611;54.932;73.338;2022-09-09T04:51:14;8.45;;;1.88;;
60993;SDS011;47611;54.932;73.338;2022-09-09T04:53:40;7.95;;;2.10;;
60993;SDS011;47611;54.932;73.338;2022-09-09T04:56:18;15.35;;;2.95;;
60993;SDS011;47611;54.932;73.338;2022-09-09T04:58:51;16.05;;;2.55;;
60993;SDS011;47611;54.932;73.338;2022-09-09T05:01:20;8.55;;;1.88;;
60993;SDS011;47611;54.932;73.338;2022-09-09T05:03:51;11.15;;;2.17;;
60993;SDS011;47611;54.932;73.338;2022-09-09T05:06:21;9.35;;;2.20;;
60993;SDS011;47611;54.932;73.338;2022-09-09T05:08:50;12.30;;;2.53;;
60993;SDS011;47611;54.932;73.338;2022-09-09T05:11:20;7.18;;;2.20;;
60993;SDS011;47611;54.932;73.338;2022-09-09T05:13:52;10.35;;;2.60;;
60993;SDS011;47611;54.932;73.338;2022-09-09T05:16:19;7.80;;;1.92;;
60993;SDS011;47611;54.932;73.338;2022-09-09T05:18:46;14.98;;;2.30;;
60993;SDS011;47611;54.932;73.338;2022-09-09T05:23:53;26.05;;;3.65;;
60993;SDS011;47611;54.932;73.338;2022-09-09T05:26:20;46.20;;;3.95;;
60993;SDS011;47611;54.932;73.338;2022-09-09T05:28:58;24.00;;;2.90;;
60993;SDS011;47611;54.932;73.338;2022-09-09T05:31:26;19.20;;;2.65;;
60993;SDS011;47611;54.932;73.338;2022-09-09T05:33:59;20.80;;;3.00;;
60993;SDS011;47611;54.932;73.338;2022-09-09T05:36:25;10.00;;;2.28;;
60993;SDS011;47611;54.932;73.338;2022-09-09T05:38:54;27.75;;;4.38;;
60993;SDS011;47611;54.932;73.338;2022-09-09T05:41:21;42.17;;;4.50;;
60993;SDS011;47611;54.932;73.338;2022-09-09T05:43:49;38.95;;;4.68;;
60993;SDS011;47611;54.932;73.338;2022-09-09T05:46:26;20.27;;;3.80;;
60993;SDS011;47611;54.932;73.338;2022-09-09T05:48:53;34.97;;;4.00;;
60993;SDS011;47611;54.932;73.338;2022-09-09T05:51:35;20.98;;;3.55;;
60993;SDS011;47611;54.932;73.338;2022-09-09T05:54:06;16.52;;;4.05;;
60993;SDS011;47611;54.932;73.338;2022-09-09T05:56:37;22.77;;;6.00;;
60993;SDS011;47611;54.932;73.338;2022-09-09T05:59:13;13.68;;;4.35;;
60993;SDS011;47611;54.932;73.338;2022-09-09T06:01:40;12.27;;;5.10;;
60993;SDS011;47611;54.932;73.338;2022-09-09T06:04:09;12.27;;;3.70;;
60993;SDS011;47611;54.932;73.338;2022-09-09T06:06:36;7.63;;;2.95;;
60993;SDS011;47611;54.932;73.338;2022-09-09T06:09:05;12.70;;;3.15;;
60993;SDS011;47611;54.932;73.338;2022-09-09T06:11:37;9.77;;;2.08;;
60993;SDS011;47611;54.932;73.338;2022-09-09T06:14:04;10.18;;;2.70;;
60993;SDS011;47611;54.932;73.338;2022-09-09T06:16:31;19.30;;;3.40;;
60993;SDS011;47611;54.932;73.338;2022-09-09T06:19:10;12.20;;;3.92;;
60993;SDS011;47611;54.932;73.338;2022-09-09T06:21:49;12.07;;;4.10;;
60993;SDS011;47611;54.932;73.338;2022-09-09T06:24:16;16.10;;;3.47;;
60993;SDS011;47611;54.932;73.338;2022-09-09T06:26:53;9.68;;;2.78;;
60993;SDS011;47611;54.932;73.338;2022-09-09T06:29:23;44.33;;;4.60;;
60993;SDS011;47611;54.932;73.338;2022-09-09T06:31:50;57.80;;;5.03;;
60993;SDS011;47611;54.932;73.338;2022-09-09T06:34:20;54.25;;;5.05;;
60993;SDS011;47611;54.932;73.338;2022-09-09T06:36:50;46.25;;;4.55;;
60993;SDS011;47611;54.932;73.338;2022-09-09T06:39:20;28.20;;;3.90;;
60993;SDS011;47611;54.932;73.338;2022-09-09T06:41:47;49.10;;;4.80;;
60993;SDS011;47611;54.932;73.338;2022-09-09T06:44:32;29.65;;;4.68;;
60993;SDS011;47611;54.932;73.338;2022-09-09T06:47:00;38.63;;;4.07;;
60993;SDS011;47611;54.932;73.338;2022-09-09T06:49:26;33.08;;;3.33;;
60993;SDS011;47611;54.932;73.338;2022-09-09T06:51:57;38.35;;;3.60;;
60993;SDS011;47611;54.932;73.338;2022-09-09T06:54:33;43.50;;;4.45;;
60993;SDS011;47611;54.932;73.338;2022-09-09T06:57:02;38.53;;;4.05;;
60993;SDS011;47611;54.932;73.338;2022-09-09T06:59:28;35.25;;;4.53;;
60993;SDS011;47611;54.932;73.338;2022-09-09T07:02:08;15.88;;;2.35;;
60993;SDS011;47611;54.932;73.338;2022-09-09T07:04:34;8.77;;;2.17;;
60993;SDS011;47611;54.932;73.338;2022-09-09T07:07:00;10.65;;;2.30;;
60993;SDS011;47611;54.932;73.338;2022-09-09T07:09:27;14.95;;;2.92;;
60993;SDS011;47611;54.932;73.338;2022-09-09T07:11:56;34.30;;;3.67;;
60993;SDS011;47611;54.932;73.338;2022-09-09T07:14:28;21.63;;;2.70;;
60993;SDS011;47611;54.932;73.338;2022-09-09T07:17:05;23.80;;;3.20;;
60993;SDS011;47611;54.932;73.338;2022-09-09T07:19:36;28.60;;;3.53;;
60993;SDS011;47611;54.932;73.338;2022-09-09T07:22:03;16.17;;;2.90;;
60993;SDS011;47611;54.932;73.338;2022-09-09T07:24:30;31.02;;;3.50;;
60993;SDS011;47611;54.932;73.338;2022-09-09T07:26:56;25.10;;;3.40;;
60993;SDS011;47611;54.932;73.338;2022-09-09T07:29:22;22.48;;;3.25;;
60993;SDS011;47611;54.932;73.338;2022-09-09T07:31:54;10.57;;;2.20;;
60993;SDS011;47611;54.932;73.338;2022-09-09T07:34:25;97.97;;;6.65;;
60993;SDS011;47611;54.932;73.338;2022-09-09T07:36:52;34.55;;;4.90;;
60993;SDS011;47611;54.932;73.338;2022-09-09T07:39:22;30.02;;;4.13;;
60993;SDS011;47611;54.932;73.338;2022-09-09T07:41:52;44.20;;;4.38;;
60993;SDS011;47611;54.932;73.338;2022-09-09T07:44:22;107.05;;;7.90;;
60993;SDS011;47611;54.932;73.338;2022-09-09T07:47:05;38.75;;;4.47;;
60993;SDS011;47611;54.932;73.338;2022-09-09T07:49:49;21.45;;;4.10;;
60993;SDS011;47611;54.932;73.338;2022-09-09T07:52:20;41.38;;;4.47;;
60993;SDS011;47611;54.932;73.338;2022-09-09T07:54:48;18.50;;;3.30;;
60993;SDS011;47611;54.932;73.338;2022-09-09T07:57:14;18.13;;;3.65;;
60993;SDS011;47611;54.932;73.338;2022-09-09T07:59:41;43.58;;;4.40;;
60993;SDS011;47611;54.932;73.338;2022-09-09T08:02:08;56.10;;;4.72;;
60993;SDS011;47611;54.932;73.338;2022-09-09T08:04:40;34.65;;;3.95;;
60993;SDS011;47611;54.932;73.338;2022-09-09T08:07:06;19.48;;;3.40;;
60993;SDS011;47611;54.932;73.338;2022-09-09T08:09:43;9.27;;;2.88;;
60993;SDS011;47611;54.932;73.338;2022-09-09T08:12:18;15.30;;;3.58;;
60993;SDS011;47611;54.932;73.338;2022-09-09T08:14:44;25.65;;;5.25;;
60993;SDS011;47611;54.932;73.338;2022-09-09T08:17:10;18.00;;;4.70;;
60993;SDS011;47611;54.932;73.338;2022-09-09T08:19:47;12.88;;;3.30;;
60993;SDS011;47611;54.932;73.338;2022-09-09T08:22:18;17.80;;;3.85;;
60993;SDS011;47611;54.932;73.338;2022-09-09T08:24:56;10.00;;;2.80;;
60993;SDS011;47611;54.932;73.338;2022-09-09T08:27:25;13.05;;;3.20;;
60993;SDS011;47611;54.932;73.338;2022-09-09T08:29:53;15.95;;;3.05;;
60993;SDS011;47611;54.932;73.338;2022-09-09T08:32:19;9.27;;;3.30;;
60993;SDS011;47611;54.932;73.338;2022-09-09T08:34:45;7.18;;;2.90;;
60993;SDS011;47611;54.932;73.338;2022-09-09T08:37:15;7.75;;;3.35;;
60993;SDS011;47611;54.932;73.338;2022-09-09T08:39:43;34.80;;;4.03;;
60993;SDS011;47611;54.932;73.338;2022-09-09T08:42:22;17.55;;;3.58;;
60993;SDS011;47611;54.932;73.338;2022-09-09T08:50:02;35.35;;;4.75;;
60993;SDS011;47611;54.932;73.338;2022-09-09T08:57:49;51.55;;;5.30;;
60993;SDS011;47611;54.932;73.338;2022-09-09T09:00:18;23.65;;;4.22;;
60993;SDS011;47611;54.932;73.338;2022-09-09T09:02:52;24.02;;;4.50;;
60993;SDS011;47611;54.932;73.338;2022-09-09T09:05:30;30.20;;;4.70;;
60993;SDS011;47611;54.932;73.338;2022-09-09T09:13:15;24.52;;;11.60;;
60993;SDS011;47611;54.932;73.338;2022-09-09T09:15:44;22.92;;;7.80;;
60993;SDS011;47611;54.932;73.338;2022-09-09T09:18:12;27.88;;;14.43;;
60993;SDS011;47611;54.932;73.338;2022-09-09T09:20:54;37.50;;;20.20;;
60993;SDS011;47611;54.932;73.338;2022-09-09T09:23:29;38.95;;;12.52;;
60993;SDS011;47611;54.932;73.338;2022-09-09T09:25:59;17.90;;;10.00;;
60993;SDS011;47611;54.932;73.338;2022-09-09T09:28:31;21.25;;;10.80;;
60993;SDS011;47611;54.932;73.338;2022-09-09T09:31:18;12.98;;;6.97;;
60993;SDS011;47611;54.932;73.338;2022-09-09T09:33:48;6.85;;;3.95;;
60993;SDS011;47611;54.932;73.338;2022-09-09T09:36:16;10.07;;;4.85;;
60993;SDS011;47611;54.932;73.338;2022-09-09T09:38:54;13.35;;;4.25;;
60993;SDS011;47611;54.932;73.338;2022-09-09T09:41:55;8.88;;;3.30;;
60993;SDS011;47611;54.932;73.338;2022-09-09T09:44:27;10.32;;;4.10;;
60993;SDS011;47611;54.932;73.338;2022-09-09T09:47:37;12.10;;;4.63;;
60993;SDS011;47611;54.932;73.338;2022-09-09T09:49:55;8.07;;;3.90;;
60993;SDS011;47611;54.932;73.338;2022-09-09T09:52:29;10.32;;;3.90;;
60993;SDS011;47611;54.932;73.338;2022-09-09T09:55:05;9.25;;;4.10;;
60993;SDS011;47611;54.932;73.338;2022-09-09T09:57:38;10.68;;;3.72;;
60993;SDS011;47611;54.932;73.338;2022-09-09T10:02:41;13.75;;;4.80;;
60993;SDS011;47611;54.932;73.338;2022-09-09T10:05:16;7.80;;;4.63;;
60993;SDS011;47611;54.932;73.338;2022-09-09T10:07:45;11.38;;;5.90;;
60993;SDS011;47611;54.932;73.338;2022-09-09T10:10:16;11.23;;;4.93;;
60993;SDS011;47611;54.932;73.338;2022-09-09T10:12:55;13.30;;;4.38;;
60993;SDS011;47611;54.932;73.338;2022-09-09T10:22:52;11.82;;;5.03;;
60993;SDS011;47611;54.932;73.338;2022-09-09T10:25:33;14.70;;;4.40;;
60993;SDS011;47611;54.932;73.338;2022-09-09T10:30:51;13.48;;;6.78;;
60993;SDS011;47611;54.932;73.338;2022-09-09T10:33:44;10.13;;;4.50;;
60993;SDS011;47611;54.932;73.338;2022-09-09T10:36:30;7.93;;;3.80;;
60993;SDS011;47611;54.932;73.338;2022-09-09T10:38:58;9.98;;;3.95;;
60993;SDS011;47611;54.932;73.338;2022-09-09T10:41:35;11.15;;;3.40;;
60993;SDS011;47611;54.932;73.338;2022-09-09T10:44:17;11.48;;;4.00;;
60993;SDS011;47611;54.932;73.338;2022-09-09T10:46:52;12.25;;;6.15;;
60993;SDS011;47611;54.932;73.338;2022-09-09T10:57:34;14.13;;;4.38;;
60993;SDS011;47611;54.932;73.338;2022-09-09T11:00:03;15.20;;;4.88;;
60993;SDS011;47611;54.932;73.338;2022-09-09T11:02:40;12.35;;;5.38;;
60993;SDS011;47611;54.932;73.338;2022-09-09T11:05:20;18.38;;;6.00;;
60993;SDS011;47611;54.932;73.338;2022-09-09T11:07:58;19.33;;;5.72;;
60993;SDS011;47611;54.932;73.338;2022-09-09T11:13:02;10.73;;;3.90;;
60993;SDS011;47611;54.932;73.338;2022-09-09T11:16:04;13.10;;;4.15;;
60993;SDS011;47611;54.932;73.338;2022-09-09T11:18:27;10.00;;;4.10;;
60993;SDS011;47611;54.932;73.338;2022-09-09T11:20:57;18.98;;;4.95;;
60993;SDS011;47611;54.932;73.338;2022-09-09T11:23:25;15.35;;;5.45;;
60993;SDS011;47611;54.932;73.338;2022-09-09T11:25:57;13.57;;;6.38;;
60993;SDS011;47611;54.932;73.338;2022-09-09T11:41:47;9.85;;;3.90;;
60993;SDS011;47611;54.932;73.338;2022-09-09T11:44:28;17.33;;;6.18;;
60993;SDS011;47611;54.932;73.338;2022-09-09T11:47:15;12.80;;;4.57;;
60993;SDS011;47611;54.932;73.338;2022-09-09T11:49:52;21.30;;;4.97;;
60993;SDS011;47611;54.932;73.338;2022-09-09T11:52:23;16.20;;;4.40;;
60993;SDS011;47611;54.932;73.338;2022-09-09T11:54:51;13.35;;;4.68;;
60993;SDS011;47611;54.932;73.338;2022-09-09T11:57:24;14.20;;;4.35;;
60993;SDS011;47611;54.932;73.338;2022-09-09T11:59:51;17.05;;;5.05;;
60993;SDS011;47611;54.932;73.338;2022-09-09T12:02:20;9.05;;;4.03;;
60993;SDS011;47611;54.932;73.338;2022-09-09T12:09:52;12.68;;;4.70;;
60993;SDS011;47611;54.932;73.338;2022-09-09T12:15:01;9.70;;;3.83;;
60993;SDS011;47611;54.932;73.338;2022-09-09T12:17:28;7.18;;;3.80;;
60993;SDS011;47611;54.932;73.338;2022-09-09T12:28:01;7.68;;;3.83;;
60993;SDS011;47611;54.932;73.338;2022-09-09T12:33:01;10.82;;;3.67;;
60993;SDS011;47611;54.932;73.338;2022-09-09T12:35:27;9.55;;;4.75;;
60993;SDS011;47611;54.932;73.338;2022-09-09T12:37:54;8.65;;;4.25;;
60993;SDS011;47611;54.932;73.338;2022-09-09T12:40:28;11.57;;;4.75;;
60993;SDS011;47611;54.932;73.338;2022-09-09T12:42:59;9.85;;;4.15;;
60993;SDS011;47611;54.932;73.338;2022-09-09T12:45:35;9.27;;;4.35;;
60993;SDS011;47611;54.932;73.338;2022-09-09T12:48:17;11.48;;;4.90;;
60993;SDS011;47611;54.932;73.338;2022-09-09T12:50:44;15.55;;;5.50;;
60993;SDS011;47611;54.932;73.338;2022-09-09T12:55:51;13.02;;;5.70;;
60993;SDS011;47611;54.932;73.338;2022-09-09T12:58:28;10.85;;;6.00;;
60993;SDS011;47611;54.932;73.338;2022-09-09T13:00:58;12.88;;;5.70;;
60993;SDS011;47611;54.932;73.338;2022-09-09T13:03:42;13.32;;;6.68;;
60993;SDS011;47611;54.932;73.338;2022-09-09T13:06:12;23.80;;;10.43;;
60993;SDS011;47611;54.932;73.338;2022-09-09T13:08:43;40.85;;;20.17;;
60993;SDS011;47611;54.932;73.338;2022-09-09T13:11:22;44.40;;;21.02;;
60993;SDS011;47611;54.932;73.338;2022-09-09T13:13:51;54.73;;;25.73;;
60993;SDS011;47611;54.932;73.338;2022-09-09T13:16:22;63.63;;;29.90;;
60993;SDS011;47611;54.932;73.338;2022-09-09T13:18:49;49.00;;;23.60;;
60993;SDS011;47611;54.932;73.338;2022-09-09T13:21:16;36.58;;;20.25;;
60993;SDS011;47611;54.932;73.338;2022-09-09T13:23:42;21.33;;;13.82;;
60993;SDS011;47611;54.932;73.338;2022-09-09T13:26:23;16.23;;;9.20;;
60993;SDS011;47611;54.932;73.338;2022-09-09T13:28:50;20.30;;;8.20;;
60993;SDS011;47611;54.932;73.338;2022-09-09T13:31:28;16.58;;;9.50;;
60993;SDS011;47611;54.932;73.338;2022-09-09T13:37:02;49.28;;;25.58;;
60993;SDS011;47611;54.932;73.338;2022-09-09T13:39:36;74.03;;;43.67;;
60993;SDS011;47611;54.932;73.338;2022-09-09T13:42:03;43.95;;;26.75;;
60993;SDS011;47611;54.932;73.338;2022-09-09T13:44:36;54.35;;;30.30;;
60993;SDS011;47611;54.932;73.338;2022-09-09T13:47:05;52.00;;;34.20;;
60993;SDS011;47611;54.932;73.338;2022-09-09T13:49:31;47.00;;;32.10;;
60993;SDS011;47611;54.932;73.338;2022-09-09T13:52:10;35.47;;;18.80;;
60993;SDS011;47611;54.932;73.338;2022-09-09T13:54:37;27.00;;;17.33;;
60993;SDS011;47611;54.932;73.338;2022-09-09T13:57:15;36.75;;;20.67;;
60993;SDS011;47611;54.932;73.338;2022-09-09T13:59:41;38.17;;;23.63;;
60993;SDS011;47611;54.932;73.338;2022-09-09T14:02:07;53.95;;;30.73;;
60993;SDS011;47611;54.932;73.338;2022-09-09T14:04:44;41.90;;;25.42;;
60993;SDS011;47611;54.932;73.338;2022-09-09T14:07:15;41.35;;;25.13;;
60993;SDS011;47611;54.932;73.338;2022-09-09T14:09:42;41.83;;;25.27;;
60993;SDS011;47611;54.932;73.338;2022-09-09T14:12:09;43.13;;;26.60;;
60993;SDS011;47611;54.932;73.338;2022-09-09T14:14:36;51.28;;;29.27;;
60993;SDS011;47611;54.932;73.338;2022-09-09T14:17:02;48.08;;;29.63;;
60993;SDS011;47611;54.932;73.338;2022-09-09T14:19:28;46.75;;;29.20;;
60993;SDS011;47611;54.932;73.338;2022-09-09T14:21:54;57.63;;;33.45;;
60993;SDS011;47611;54.932;73.338;2022-09-09T14:24:20;64.82;;;36.85;;
60993;SDS011;47611;54.932;73.338;2022-09-09T14:26:46;83.57;;;45.97;;
60993;SDS011;47611;54.932;73.338;2022-09-09T14:29:13;104.40;;;57.80;;
60993;SDS011;47611;54.932;73.338;2022-09-09T14:31:39;99.40;;;50.53;;
60993;SDS011;47611;54.932;73.338;2022-09-09T14:34:05;77.97;;;41.03;;
60993;SDS011;47611;54.932;73.338;2022-09-09T14:36:41;77.47;;;38.72;;
60993;SDS011;47611;54.932;73.338;2022-09-09T14:39:12;71.07;;;41.25;;
60993;SDS011;47611;54.932;73.338;2022-09-09T14:41:48;105.15;;;49.60;;
60993;SDS011;47611;54.932;73.338;2022-09-09T14:44:14;107.22;;;51.58;;
60993;SDS011;47611;54.932;73.338;2022-09-09T14:46:41;100.90;;;50.75;;
60993;SDS011;47611;54.932;73.338;2022-09-09T14:49:13;119.93;;;58.70;;
60993;SDS011;47611;54.932;73.338;2022-09-09T14:51:46;103.72;;;51.92;;
60993;SDS011;47611;54.932;73.338;2022-09-09T14:54:11;84.95;;;40.67;;
60993;SDS011;47611;54.932;73.338;2022-09-09T14:56:38;84.22;;;41.50;;
60993;SDS011;47611;54.932;73.338;2022-09-09T14:59:10;76.32;;;40.38;;
60993;SDS011;47611;54.932;73.338;2022-09-09T15:01:39;76.32;;;36.78;;
60993;SDS011;47611;54.932;73.338;2022-09-09T15:04:11;94.78;;;42.05;;
60993;SDS011;47611;54.932;73.338;2022-09-09T15:06:42;82.88;;;40.30;;
60993;SDS011;47611;54.932;73.338;2022-09-09T15:09:12;74.88;;;38.40;;
60993;SDS011;47611;54.932;73.338;2022-09-09T15:11:38;66.97;;;34.58;;
60993;SDS011;47611;54.932;73.338;2022-09-09T15:14:05;67.90;;;33.00;;
60993;SDS011;47611;54.932;73.338;2022-09-09T15:16:40;79.25;;;35.20;;
60993;SDS011;47611;54.932;73.338;2022-09-09T15:19:06;67.30;;;35.60;;
60993;SDS011;47611;54.932;73.338;2022-09-09T15:21:33;69.55;;;38.05;;
60993;SDS011;47611;54.932;73.338;2022-09-09T15:24:00;64.03;;;33.10;;
60993;SDS011;47611;54.932;73.338;2022-09-09T15:26:26;66.53;;;31.98;;
60993;SDS011;47611;54.932;73.338;2022-09-09T15:28:58;84.80;;;40.03;;
60993;SDS011;47611;54.932;73.338;2022-09-09T15:31:30;84.03;;;39.33;;
60993;SDS011;47611;54.932;73.338;2022-09-09T15:34:02;80.03;;;42.33;;
60993;SDS011;47611;54.932;73.338;2022-09-09T15:36:32;95.57;;;45.35;;
60993;SDS011;47611;54.932;73.338;2022-09-09T15:39:05;98.07;;;47.53;;
60993;SDS011;47611;54.932;73.338;2022-09-09T15:41:44;103.90;;;46.25;;
60993;SDS011;47611;54.932;73.338;2022-09-09T15:44:15;125.55;;;54.17;;
60993;SDS011;47611;54.932;73.338;2022-09-09T15:46:42;141.38;;;61.60;;
60993;SDS011;47611;54.932;73.338;2022-09-09T15:49:19;150.32;;;63.40;;
60993;SDS011;47611;54.932;73.338;2022-09-09T15:51:56;185.98;;;75.07;;
60993;SDS011;47611;54.932;73.338;2022-09-09T15:54:34;125.95;;;57.08;;
60993;SDS011;47611;54.932;73.338;2022-09-09T15:57:02;140.88;;;64.40;;
60993;SDS011;47611;54.932;73.338;2022-09-09T15:59:33;139.20;;;61.95;;
60993;SDS011;47611;54.932;73.338;2022-09-09T16:02:00;144.98;;;68.18;;
60993;SDS011;47611;54.932;73.338;2022-09-09T16:04:26;132.95;;;62.72;;
60993;SDS011;47611;54.932;73.338;2022-09-09T16:06:56;132.80;;;61.80;;
60993;SDS011;47611;54.932;73.338;2022-09-09T16:09:34;110.65;;;49.65;;
60993;SDS011;47611;54.932;73.338;2022-09-09T16:12:06;102.90;;;47.90;;
60993;SDS011;47611;54.932;73.338;2022-09-09T16:14:44;109.25;;;50.55;;
60993;SDS011;47611;54.932;73.338;2022-09-09T16:17:10;108.35;;;50.28;;
60993;SDS011;47611;54.932;73.338;2022-09-09T16:19:41;122.95;;;53.22;;
60993;SDS011;47611;54.932;73.338;2022-09-09T16:22:07;127.10;;;56.85;;
60993;SDS011;47611;54.932;73.338;2022-09-09T16:24:38;110.90;;;54.45;;
60993;SDS011;47611;54.932;73.338;2022-09-09T16:27:04;138.02;;;58.40;;
60993;SDS011;47611;54.932;73.338;2022-09-09T16:29:30;185.82;;;75.57;;
60993;SDS011;47611;54.932;73.338;2022-09-09T16:32:02;204.07;;;83.80;;
60993;SDS011;47611;54.932;73.338;2022-09-09T16:34:28;180.35;;;75.18;;
60993;SDS011;47611;54.932;73.338;2022-09-09T16:36:54;145.93;;;64.80;;
60993;SDS011;47611;54.932;73.338;2022-09-09T16:39:30;142.57;;;60.55;;
60993;SDS011;47611;54.932;73.338;2022-09-09T16:41:59;148.88;;;64.72;;
60993;SDS011;47611;54.932;73.338;2022-09-09T16:44:30;161.05;;;66.45;;
60993;SDS011;47611;54.932;73.338;2022-09-09T16:46:58;140.48;;;58.72;;